sensor_id;sensor_type;location;lat;lon;timestamp;pressure;altitude;pressure_sealevel;temperature;humidity
6345;BME280;3205;42.666;23.264;2022-11-23T00:01:54;93079.38;;;7.99;nan
6345;BME280;3205;42.666;23.264;2022-11-23T00:04:21;93082.41;;;8.01;nan
6345;BME280;3205;42.666;23.264;2022-11-23T00:06:49;93077.22;;;8.04;nan
6345;BME280;3205;42.666;23.264;2022-11-23T00:09:16;93087.72;;;8.04;nan
6345;BME280;3205;42.666;23.264;2022-11-23T00:11:44;93089.81;;;8.14;nan
6345;BME280;3205;42.666;23.264;2022-11-23T00:16:56;93072.50;;;8.13;nan
6345;BME280;3205;42.666;23.264;2022-11-23T00:19:23;93070.97;;;8.12;nan
6345;BME280;3205;42.666;23.264;2022-11-23T00:21:49;93054.19;;;8.16;nan
6345;BME280;3205;42.666;23.264;2022-11-23T00:24:16;93059.50;;;8.20;nan
6345;BME280;3205;42.666;23.264;2022-11-23T00:26:44;93051.84;;;8.34;nan
6345;BME280;3205;42.666;23.264;2022-11-23T00:29:11;93053.56;;;8.23;nan
6345;BME280;3205;42.666;23.264;2022-11-23T00:31:38;93043.59;;;8.35;nan
6345;BME280;3205;42.666;23.264;2022-11-23T00:34:04;93066.91;;;8.33;nan
6345;BME280;3205;42.666;23.264;2022-11-23T00:36:31;93074.03;;;8.33;nan
6345;BME280;3205;42.666;23.264;2022-11-23T00:39:15;93065.72;;;8.31;nan
6345;BME280;3205;42.666;23.264;2022-11-23T00:41:43;93059.69;;;8.30;nan
6345;BME280;3205;42.666;23.264;2022-11-23T00:44:10;93057.75;;;8.27;nan
6345;BME280;3205;42.666;23.264;2022-11-23T00:46:37;93065.59;;;8.24;nan
6345;BME280;3205;42.666;23.264;2022-11-23T00:49:04;93065.59;;;8.24;nan
6345;BME280;3205;42.666;23.264;2022-11-23T00:51:33;93055.06;;;8.24;nan
6345;BME280;3205;42.666;23.264;2022-11-23T00:54:00;93053.81;;;8.37;nan
6345;BME280;3205;42.666;23.264;2022-11-23T00:56:28;93052.72;;;8.41;nan
6345;BME280;3205;42.666;23.264;2022-11-23T00:58:58;93053.16;;;8.43;nan
6345;BME280;3205;42.666;23.264;2022-11-23T01:01:28;93050.16;;;8.45;nan
6345;BME280;3205;42.666;23.264;2022-11-23T01:03:59;93052.09;;;8.48;nan
6345;BME280;3205;42.666;23.264;2022-11-23T01:06:28;93043.66;;;8.39;nan
6345;BME280;3205;42.666;23.264;2022-11-23T01:08:57;93040.28;;;8.38;nan
6345;BME280;3205;42.666;23.264;2022-11-23T01:11:26;93051.22;;;8.40;nan
6345;BME280;3205;42.666;23.264;2022-11-23T01:13:53;93050.03;;;8.38;nan
6345;BME280;3205;42.666;23.264;2022-11-23T01:16:23;93047.81;;;8.40;nan
6345;BME280;3205;42.666;23.264;2022-11-23T01:18:51;93041.03;;;8.39;nan
6345;BME280;3205;42.666;23.264;2022-11-23T01:21:20;93041.75;;;8.36;nan
6345;BME280;3205;42.666;23.264;2022-11-23T01:23:47;93047.28;;;8.31;nan
6345;BME280;3205;42.666;23.264;2022-11-23T01:26:13;93043.59;;;8.35;nan
6345;BME280;3205;42.666;23.264;2022-11-23T01:28:40;93051.78;;;8.30;nan
6345;BME280;3205;42.666;23.264;2022-11-23T01:31:10;93055.78;;;8.43;nan
6345;BME280;3205;42.666;23.264;2022-11-23T01:33:40;93043.22;;;8.33;nan
6345;BME280;3205;42.666;23.264;2022-11-23T01:36:09;93035.25;;;8.30;nan
6345;BME280;3205;42.666;23.264;2022-11-23T01:38:36;93031.34;;;8.20;nan
6345;BME280;3205;42.666;23.264;2022-11-23T01:41:03;93040.66;;;8.18;nan
6345;BME280;3205;42.666;23.264;2022-11-23T01:43:30;93044.00;;;8.15;nan
6345;BME280;3205;42.666;23.264;2022-11-23T01:45:58;93051.19;;;8.18;nan
6345;BME280;3205;42.666;23.264;2022-11-23T01:48:28;93035.66;;;8.32;nan
6345;BME280;3205;42.666;23.264;2022-11-23T01:50:59;93036.34;;;8.29;nan
6345;BME280;3205;42.666;23.264;2022-11-23T01:53:27;93049.78;;;8.24;nan
6345;BME280;3205;42.666;23.264;2022-11-23T01:55:59;93048.81;;;8.32;nan
6345;BME280;3205;42.666;23.264;2022-11-23T01:58:29;93044.81;;;8.41;nan
6345;BME280;3205;42.666;23.264;2022-11-23T02:00:57;93035.94;;;8.27;nan
6345;BME280;3205;42.666;23.264;2022-11-23T02:03:25;93017.44;;;8.23;nan
6345;BME280;3205;42.666;23.264;2022-11-23T02:05:58;93013.88;;;8.12;nan
6345;BME280;3205;42.666;23.264;2022-11-23T02:08:27;93023.84;;;8.04;nan
6345;BME280;3205;42.666;23.264;2022-11-23T02:10:54;93020.09;;;8.05;nan
6345;BME280;3205;42.666;23.264;2022-11-23T02:13:23;93011.56;;;8.11;nan
6345;BME280;3205;42.666;23.264;2022-11-23T02:15:51;93005.72;;;7.99;nan
6345;BME280;3205;42.666;23.264;2022-11-23T02:18:21;93010.97;;;7.99;nan
6345;BME280;3205;42.666;23.264;2022-11-23T02:20:49;93009.81;;;7.96;nan
6345;BME280;3205;42.666;23.264;2022-11-23T02:23:28;93012.56;;;8.03;nan
6345;BME280;3205;42.666;23.264;2022-11-23T02:25:59;93007.75;;;8.08;nan
6345;BME280;3205;42.666;23.264;2022-11-23T02:28:30;92999.06;;;8.05;nan
6345;BME280;3205;42.666;23.264;2022-11-23T02:30:59;93005.47;;;8.07;nan
6345;BME280;3205;42.666;23.264;2022-11-23T02:33:26;93003.59;;;8.07;nan
6345;BME280;3205;42.666;23.264;2022-11-23T02:35:56;92995.38;;;8.09;nan
6345;BME280;3205;42.666;23.264;2022-11-23T02:38:25;92993.84;;;8.08;nan
6345;BME280;3205;42.666;23.264;2022-11-23T02:40:52;92978.38;;;8.03;nan
6345;BME280;3205;42.666;23.264;2022-11-23T02:43:20;92970.06;;;8.01;nan
6345;BME280;3205;42.666;23.264;2022-11-23T02:45:50;92976.00;;;7.98;nan
6345;BME280;3205;42.666;23.264;2022-11-23T02:48:18;92969.88;;;7.91;nan
6345;BME280;3205;42.666;23.264;2022-11-23T02:50:45;92966.53;;;7.94;nan
6345;BME280;3205;42.666;23.264;2022-11-23T02:53:13;92962.41;;;7.93;nan
6345;BME280;3205;42.666;23.264;2022-11-23T02:55:40;92972.31;;;7.80;nan
6345;BME280;3205;42.666;23.264;2022-11-23T02:58:07;92948.22;;;7.78;nan
6345;BME280;3205;42.666;23.264;2022-11-23T03:00:35;92953.75;;;7.73;nan
6345;BME280;3205;42.666;23.264;2022-11-23T03:03:03;92957.38;;;7.65;nan
6345;BME280;3205;42.666;23.264;2022-11-23T03:05:30;92970.03;;;7.60;nan
6345;BME280;3205;42.666;23.264;2022-11-23T03:07:56;92963.19;;;7.74;nan
6345;BME280;3205;42.666;23.264;2022-11-23T03:10:23;92947.41;;;7.74;nan
6345;BME280;3205;42.666;23.264;2022-11-23T03:12:53;92945.59;;;7.78;nan
6345;BME280;3205;42.666;23.264;2022-11-23T03:15:20;92941.66;;;7.69;nan
6345;BME280;3205;42.666;23.264;2022-11-23T03:17:49;92950.31;;;7.69;nan
6345;BME280;3205;42.666;23.264;2022-11-23T03:20:15;92929.91;;;7.63;nan
6345;BME280;3205;42.666;23.264;2022-11-23T03:22:42;92951.09;;;7.51;nan
6345;BME280;3205;42.666;23.264;2022-11-23T03:25:09;92945.78;;;7.47;nan
6345;BME280;3205;42.666;23.264;2022-11-23T03:27:36;92927.09;;;7.52;nan
6345;BME280;3205;42.666;23.264;2022-11-23T03:30:05;92944.25;;;7.46;nan
6345;BME280;3205;42.666;23.264;2022-11-23T03:32:32;92940.09;;;7.45;nan
6345;BME280;3205;42.666;23.264;2022-11-23T03:35:00;92923.84;;;7.59;nan
6345;BME280;3205;42.666;23.264;2022-11-23T03:37:27;92945.06;;;7.50;nan
6345;BME280;3205;42.666;23.264;2022-11-23T03:39:54;92919.56;;;7.51;nan
6345;BME280;3205;42.666;23.264;2022-11-23T03:42:21;92922.13;;;7.47;nan
6345;BME280;3205;42.666;23.264;2022-11-23T03:44:48;92912.00;;;7.49;nan
6345;BME280;3205;42.666;23.264;2022-11-23T03:47:14;92927.59;;;7.39;nan
6345;BME280;3205;42.666;23.264;2022-11-23T03:49:41;92891.56;;;7.39;nan
6345;BME280;3205;42.666;23.264;2022-11-23T03:52:09;92901.72;;;7.41;nan
6345;BME280;3205;42.666;23.264;2022-11-23T03:54:36;92895.28;;;7.38;nan
6345;BME280;3205;42.666;23.264;2022-11-23T03:57:03;92898.28;;;7.37;nan
6345;BME280;3205;42.666;23.264;2022-11-23T03:59:29;92900.69;;;7.27;nan
6345;BME280;3205;42.666;23.264;2022-11-23T04:01:56;92915.81;;;7.33;nan
6345;BME280;3205;42.666;23.264;2022-11-23T04:04:23;92915.34;;;7.28;nan
6345;BME280;3205;42.666;23.264;2022-11-23T04:06:49;92919.09;;;7.27;nan
6345;BME280;3205;42.666;23.264;2022-11-23T04:09:18;92915.00;;;7.29;nan
6345;BME280;3205;42.666;23.264;2022-11-23T04:11:44;92912.72;;;7.28;nan
6345;BME280;3205;42.666;23.264;2022-11-23T04:14:11;92914.88;;;7.22;nan
6345;BME280;3205;42.666;23.264;2022-11-23T04:16:38;92916.88;;;7.29;nan
6345;BME280;3205;42.666;23.264;2022-11-23T04:19:06;92920.63;;;7.28;nan
6345;BME280;3205;42.666;23.264;2022-11-23T04:21:33;92913.56;;;7.32;nan
6345;BME280;3205;42.666;23.264;2022-11-23T04:24:00;92932.84;;;7.39;nan
6345;BME280;3205;42.666;23.264;2022-11-23T04:26:28;92923.22;;;7.46;nan
6345;BME280;3205;42.666;23.264;2022-11-23T04:28:55;92927.84;;;7.34;nan
6345;BME280;3205;42.666;23.264;2022-11-23T04:31:23;92931.66;;;7.36;nan
6345;BME280;3205;42.666;23.264;2022-11-23T04:33:50;92931.59;;;7.33;nan
6345;BME280;3205;42.666;23.264;2022-11-23T04:36:17;92928.63;;;7.35;nan
6345;BME280;3205;42.666;23.264;2022-11-23T04:38:43;92924.47;;;7.34;nan
6345;BME280;3205;42.666;23.264;2022-11-23T04:41:10;92943.78;;;7.22;nan
6345;BME280;3205;42.666;23.264;2022-11-23T04:43:38;92950.63;;;7.27;nan
6345;BME280;3205;42.666;23.264;2022-11-23T04:46:05;92933.91;;;7.35;nan
6345;BME280;3205;42.666;23.264;2022-11-23T04:48:32;92954.72;;;7.24;nan
6345;BME280;3205;42.666;23.264;2022-11-23T04:50:59;92967.28;;;7.15;nan
6345;BME280;3205;42.666;23.264;2022-11-23T04:53:26;92937.06;;;7.25;nan
6345;BME280;3205;42.666;23.264;2022-11-23T04:55:52;92952.69;;;7.36;nan
6345;BME280;3205;42.666;23.264;2022-11-23T04:58:19;92937.81;;;7.44;nan
6345;BME280;3205;42.666;23.264;2022-11-23T05:00:49;92955.81;;;7.42;nan
6345;BME280;3205;42.666;23.264;2022-11-23T05:03:16;92974.56;;;7.40;nan
6345;BME280;3205;42.666;23.264;2022-11-23T05:05:42;92953.38;;;7.52;nan
6345;BME280;3205;42.666;23.264;2022-11-23T05:08:09;92968.13;;;7.57;nan
6345;BME280;3205;42.666;23.264;2022-11-23T05:10:36;92961.66;;;7.73;nan
6345;BME280;3205;42.666;23.264;2022-11-23T05:13:03;92951.13;;;7.73;nan
6345;BME280;3205;42.666;23.264;2022-11-23T05:15:30;92957.38;;;7.65;nan
6345;BME280;3205;42.666;23.264;2022-11-23T05:18:01;92952.53;;;7.67;nan
6345;BME280;3205;42.666;23.264;2022-11-23T05:20:28;92970.38;;;7.58;nan
6345;BME280;3205;42.666;23.264;2022-11-23T05:22:55;92955.16;;;7.67;nan
6345;BME280;3205;42.666;23.264;2022-11-23T05:25:21;92954.13;;;7.53;nan
6345;BME280;3205;42.666;23.264;2022-11-23T05:27:48;92946.44;;;7.63;nan
6345;BME280;3205;42.666;23.264;2022-11-23T05:30:15;92949.84;;;7.64;nan
6345;BME280;3205;42.666;23.264;2022-11-23T05:32:42;92948.09;;;7.71;nan
6345;BME280;3205;42.666;23.264;2022-11-23T05:35:10;92948.28;;;7.82;nan
6345;BME280;3205;42.666;23.264;2022-11-23T05:37:37;92937.75;;;7.82;nan
6345;BME280;3205;42.666;23.264;2022-11-23T05:40:05;92939.50;;;7.74;nan
6345;BME280;3205;42.666;23.264;2022-11-23T05:42:32;92938.13;;;7.80;nan
6345;BME280;3205;42.666;23.264;2022-11-23T05:44:59;92946.47;;;7.86;nan
6345;BME280;3205;42.666;23.264;2022-11-23T05:47:27;92951.09;;;7.92;nan
6345;BME280;3205;42.666;23.264;2022-11-23T05:49:55;92947.13;;;8.02;nan
6345;BME280;3205;42.666;23.264;2022-11-23T05:52:24;92959.53;;;8.01;nan
6345;BME280;3205;42.666;23.264;2022-11-23T05:54:51;92949.47;;;8.07;nan
6345;BME280;3205;42.666;23.264;2022-11-23T05:57:18;92946.91;;;8.10;nan
6345;BME280;3205;42.666;23.264;2022-11-23T05:59:47;92950.97;;;8.07;nan
6345;BME280;3205;42.666;23.264;2022-11-23T06:02:14;92934.22;;;8.15;nan
6345;BME280;3205;42.666;23.264;2022-11-23T06:04:41;92935.97;;;8.08;nan
6345;BME280;3205;42.666;23.264;2022-11-23T06:07:07;92951.03;;;8.11;nan
6345;BME280;3205;42.666;23.264;2022-11-23T06:09:36;92963.81;;;8.31;nan
6345;BME280;3205;42.666;23.264;2022-11-23T06:12:03;92964.31;;;8.37;nan
6345;BME280;3205;42.666;23.264;2022-11-23T06:14:29;92969.63;;;8.40;nan
6345;BME280;3205;42.666;23.264;2022-11-23T06:16:56;92964.00;;;8.42;nan
6345;BME280;3205;42.666;23.264;2022-11-23T06:19:25;92968.09;;;8.39;nan
6345;BME280;3205;42.666;23.264;2022-11-23T06:21:54;92979.63;;;8.31;nan
6345;BME280;3205;42.666;23.264;2022-11-23T06:24:21;92979.72;;;8.38;nan
6345;BME280;3205;42.666;23.264;2022-11-23T06:26:49;92981.88;;;8.55;nan
6345;BME280;3205;42.666;23.264;2022-11-23T06:29:16;92976.44;;;8.67;nan
6345;BME280;3205;42.666;23.264;2022-11-23T06:31:44;92981.84;;;8.78;nan
6345;BME280;3205;42.666;23.264;2022-11-23T06:34:11;92985.34;;;8.85;nan
6345;BME280;3205;42.666;23.264;2022-11-23T06:36:40;92984.69;;;8.91;nan
6345;BME280;3205;42.666;23.264;2022-11-23T06:39:07;92990.03;;;8.95;nan
6345;BME280;3205;42.666;23.264;2022-11-23T06:41:34;92983.28;;;8.97;nan
6345;BME280;3205;42.666;23.264;2022-11-23T06:44:04;92988.94;;;8.99;nan
6345;BME280;3205;42.666;23.264;2022-11-23T06:46:31;92988.75;;;9.11;nan
6345;BME280;3205;42.666;23.264;2022-11-23T06:48:58;92984.44;;;9.29;nan
6345;BME280;3205;42.666;23.264;2022-11-23T06:51:26;92966.41;;;9.31;nan
6345;BME280;3205;42.666;23.264;2022-11-23T06:53:52;92980.44;;;9.39;nan
6345;BME280;3205;42.666;23.264;2022-11-23T06:56:19;92986.06;;;9.37;nan
6345;BME280;3205;42.666;23.264;2022-11-23T06:58:47;92982.53;;;9.56;nan
6345;BME280;3205;42.666;23.264;2022-11-23T07:01:15;92970.06;;;9.89;nan
6345;BME280;3205;42.666;23.264;2022-11-23T07:03:41;92987.63;;;10.04;nan
6345;BME280;3205;42.666;23.264;2022-11-23T07:06:09;92976.44;;;10.17;nan
6345;BME280;3205;42.666;23.264;2022-11-23T07:08:36;92998.66;;;10.13;nan
6345;BME280;3205;42.666;23.264;2022-11-23T07:11:08;92974.16;;;10.16;nan
6345;BME280;3205;42.666;23.264;2022-11-23T07:13:36;92993.03;;;10.18;nan
6345;BME280;3205;42.666;23.264;2022-11-23T07:16:03;92993.56;;;10.34;nan
6345;BME280;3205;42.666;23.264;2022-11-23T07:18:31;92996.44;;;10.61;nan
6345;BME280;3205;42.666;23.264;2022-11-23T07:20:58;93014.16;;;10.57;nan
6345;BME280;3205;42.666;23.264;2022-11-23T07:23:25;93011.25;;;10.30;nan
6345;BME280;3205;42.666;23.264;2022-11-23T07:25:52;93015.38;;;10.27;nan
6345;BME280;3205;42.666;23.264;2022-11-23T07:28:19;93004.63;;;10.49;nan
6345;BME280;3205;42.666;23.264;2022-11-23T07:30:48;93001.84;;;10.75;nan
6345;BME280;3205;42.666;23.264;2022-11-23T07:33:15;93002.38;;;10.95;nan
6345;BME280;3205;42.666;23.264;2022-11-23T07:35:44;93010.81;;;11.14;nan
6345;BME280;3205;42.666;23.264;2022-11-23T07:38:10;93003.84;;;11.49;nan
6345;BME280;3205;42.666;23.264;2022-11-23T07:40:38;93010.44;;;11.83;nan
6345;BME280;3205;42.666;23.264;2022-11-23T07:43:05;93021.09;;;12.00;nan
6345;BME280;3205;42.666;23.264;2022-11-23T07:45:33;93010.97;;;12.20;nan
6345;BME280;3205;42.666;23.264;2022-11-23T07:48:02;93011.38;;;12.53;nan
6345;BME280;3205;42.666;23.264;2022-11-23T07:50:30;93029.91;;;12.39;nan
6345;BME280;3205;42.666;23.264;2022-11-23T07:53:00;93035.28;;;12.77;nan
6345;BME280;3205;42.666;23.264;2022-11-23T07:55:26;93034.19;;;12.92;nan
6345;BME280;3205;42.666;23.264;2022-11-23T07:57:55;93024.72;;;12.91;nan
6345;BME280;3205;42.666;23.264;2022-11-23T08:00:23;93028.13;;;12.88;nan
6345;BME280;3205;42.666;23.264;2022-11-23T08:02:50;93042.06;;;12.57;nan
6345;BME280;3205;42.666;23.264;2022-11-23T08:05:18;93021.31;;;12.91;nan
6345;BME280;3205;42.666;23.264;2022-11-23T08:07:44;93014.78;;;12.40;nan
6345;BME280;3205;42.666;23.264;2022-11-23T08:10:13;93014.78;;;12.33;nan
6345;BME280;3205;42.666;23.264;2022-11-23T08:12:40;93008.75;;;12.70;nan
6345;BME280;3205;42.666;23.264;2022-11-23T08:15:08;93017.50;;;12.92;nan
6345;BME280;3205;42.666;23.264;2022-11-23T08:17:35;93017.19;;;14.31;nan
6345;BME280;3205;42.666;23.264;2022-11-23T08:20:02;93019.69;;;16.56;nan
6345;BME280;3205;42.666;23.264;2022-11-23T08:22:29;93047.97;;;18.17;nan
6345;BME280;3205;42.666;23.264;2022-11-23T08:24:55;93060.69;;;19.70;nan
6345;BME280;3205;42.666;23.264;2022-11-23T08:27:23;93072.34;;;20.52;nan
6345;BME280;3205;42.666;23.264;2022-11-23T08:29:50;93061.19;;;21.44;nan
6345;BME280;3205;42.666;23.264;2022-11-23T08:32:17;93060.34;;;20.00;nan
6345;BME280;3205;42.666;23.264;2022-11-23T08:34:44;93068.47;;;20.82;nan
6345;BME280;3205;42.666;23.264;2022-11-23T08:37:11;93075.25;;;20.01;nan
6345;BME280;3205;42.666;23.264;2022-11-23T08:39:38;93064.94;;;17.88;nan
6345;BME280;3205;42.666;23.264;2022-11-23T08:42:05;93063.28;;;16.99;nan
6345;BME280;3205;42.666;23.264;2022-11-23T08:44:33;93071.50;;;17.38;nan
6345;BME280;3205;42.666;23.264;2022-11-23T08:47:00;93071.00;;;16.94;nan
6345;BME280;3205;42.666;23.264;2022-11-23T08:49:27;93054.16;;;15.30;nan
6345;BME280;3205;42.666;23.264;2022-11-23T08:51:53;93073.53;;;14.73;nan
6345;BME280;3205;42.666;23.264;2022-11-23T08:54:20;93072.97;;;14.38;nan
6345;BME280;3205;42.666;23.264;2022-11-23T08:56:49;93060.81;;;15.05;nan
6345;BME280;3205;42.666;23.264;2022-11-23T08:59:16;93071.84;;;15.91;nan
6345;BME280;3205;42.666;23.264;2022-11-23T09:01:44;93079.03;;;16.64;nan
6345;BME280;3205;42.666;23.264;2022-11-23T09:04:11;93080.13;;;16.96;nan
6345;BME280;3205;42.666;23.264;2022-11-23T09:06:38;93079.16;;;18.27;nan
6345;BME280;3205;42.666;23.264;2022-11-23T09:09:05;93078.03;;;18.99;nan
6345;BME280;3205;42.666;23.264;2022-11-23T09:11:32;93065.50;;;19.91;nan
6345;BME280;3205;42.666;23.264;2022-11-23T09:13:59;93065.72;;;19.01;nan
6345;BME280;3205;42.666;23.264;2022-11-23T09:16:26;93063.81;;;19.02;nan
6345;BME280;3205;42.666;23.264;2022-11-23T09:18:55;93062.00;;;18.79;nan
6345;BME280;3205;42.666;23.264;2022-11-23T09:21:22;93056.28;;;18.42;nan
6345;BME280;3205;42.666;23.264;2022-11-23T09:23:54;93062.44;;;18.59;nan
6345;BME280;3205;42.666;23.264;2022-11-23T09:26:21;93056.38;;;17.96;nan
6345;BME280;3205;42.666;23.264;2022-11-23T09:28:49;93057.44;;;18.41;nan
6345;BME280;3205;42.666;23.264;2022-11-23T09:31:17;93051.69;;;18.23;nan
6345;BME280;3205;42.666;23.264;2022-11-23T09:33:44;93056.38;;;17.96;nan
6345;BME280;3205;42.666;23.264;2022-11-23T09:36:12;93043.59;;;16.34;nan
6345;BME280;3205;42.666;23.264;2022-11-23T09:38:39;93040.22;;;16.59;nan
6345;BME280;3205;42.666;23.264;2022-11-23T09:41:17;93041.28;;;15.65;nan
6345;BME280;3205;42.666;23.264;2022-11-23T09:43:53;93038.31;;;14.59;nan
6345;BME280;3205;42.666;23.264;2022-11-23T09:46:31;93026.31;;;14.91;nan
6345;BME280;3205;42.666;23.264;2022-11-23T09:49:20;93033.38;;;15.11;nan
6345;BME280;3205;42.666;23.264;2022-11-23T09:51:53;93038.41;;;14.95;nan
6345;BME280;3205;42.666;23.264;2022-11-23T09:54:24;93044.75;;;14.61;nan
6345;BME280;3205;42.666;23.264;2022-11-23T09:56:55;93032.03;;;14.25;nan
6345;BME280;3205;42.666;23.264;2022-11-23T09:59:34;93032.03;;;14.21;nan
6345;BME280;3205;42.666;23.264;2022-11-23T10:02:02;93026.00;;;14.07;nan
6345;BME280;3205;42.666;23.264;2022-11-23T10:04:33;93034.34;;;14.09;nan
6345;BME280;3205;42.666;23.264;2022-11-23T10:07:11;93034.03;;;13.97;nan
6345;BME280;3205;42.666;23.264;2022-11-23T10:09:50;93020.47;;;13.56;nan
6345;BME280;3205;42.666;23.264;2022-11-23T10:12:31;93019.75;;;13.42;nan
6345;BME280;3205;42.666;23.264;2022-11-23T10:15:09;93013.19;;;13.78;nan
6345;BME280;3205;42.666;23.264;2022-11-23T10:17:52;93007.88;;;13.81;nan
6345;BME280;3205;42.666;23.264;2022-11-23T10:20:51;93020.63;;;14.24;nan
6345;BME280;3205;42.666;23.264;2022-11-23T10:23:33;93014.13;;;14.36;nan
6345;BME280;3205;42.666;23.264;2022-11-23T10:26:08;92994.59;;;13.81;nan
6345;BME280;3205;42.666;23.264;2022-11-23T10:28:37;93011.63;;;13.94;nan
6345;BME280;3205;42.666;23.264;2022-11-23T10:31:13;93012.25;;;14.33;nan
6345;BME280;3205;42.666;23.264;2022-11-23T10:33:47;93020.06;;;14.61;nan
6345;BME280;3205;42.666;23.264;2022-11-23T10:36:16;93022.59;;;14.78;nan
6345;BME280;3205;42.666;23.264;2022-11-23T10:38:47;93018.09;;;15.22;nan
6345;BME280;3205;42.666;23.264;2022-11-23T10:41:15;93009.91;;;15.43;nan
6345;BME280;3205;42.666;23.264;2022-11-23T10:43:44;93008.09;;;15.73;nan
6345;BME280;3205;42.666;23.264;2022-11-23T10:46:30;93010.91;;;15.93;nan
6345;BME280;3205;42.666;23.264;2022-11-23T10:49:14;92995.25;;;15.98;nan
6345;BME280;3205;42.666;23.264;2022-11-23T10:51:52;92994.56;;;16.24;nan
6345;BME280;3205;42.666;23.264;2022-11-23T10:54:24;92989.31;;;16.17;nan
6345;BME280;3205;42.666;23.264;2022-11-23T10:56:54;92990.47;;;16.16;nan
6345;BME280;3205;42.666;23.264;2022-11-23T10:59:26;92989.56;;;16.30;nan
6345;BME280;3205;42.666;23.264;2022-11-23T11:02:10;92985.22;;;16.09;nan
6345;BME280;3205;42.666;23.264;2022-11-23T11:04:39;92991.22;;;16.17;nan
6345;BME280;3205;42.666;23.264;2022-11-23T11:07:17;92988.56;;;16.17;nan
6345;BME280;3205;42.666;23.264;2022-11-23T11:09:53;92980.31;;;16.38;nan
6345;BME280;3205;42.666;23.264;2022-11-23T11:12:21;92981.47;;;16.37;nan
6345;BME280;3205;42.666;23.264;2022-11-23T11:14:56;92986.81;;;16.37;nan
6345;BME280;3205;42.666;23.264;2022-11-23T11:17:24;92990.97;;;16.64;nan
6345;BME280;3205;42.666;23.264;2022-11-23T11:19:52;92989.53;;;16.59;nan
6345;BME280;3205;42.666;23.264;2022-11-23T11:22:32;92989.78;;;16.68;nan
6345;BME280;3205;42.666;23.264;2022-11-23T11:25:04;92977.38;;;16.55;nan
6345;BME280;3205;42.666;23.264;2022-11-23T11:27:34;92988.66;;;16.39;nan
6345;BME280;3205;42.666;23.264;2022-11-23T11:30:04;92993.34;;;16.32;nan
6345;BME280;3205;42.666;23.264;2022-11-23T11:32:41;92992.88;;;16.37;nan
6345;BME280;3205;42.666;23.264;2022-11-23T11:35:12;92990.13;;;16.44;nan
6345;BME280;3205;42.666;23.264;2022-11-23T11:37:41;92977.00;;;16.56;nan
6345;BME280;3205;42.666;23.264;2022-11-23T11:40:18;92990.16;;;16.40;nan
6345;BME280;3205;42.666;23.264;2022-11-23T11:42:49;92989.06;;;16.38;nan
6345;BME280;3205;42.666;23.264;2022-11-23T11:45:22;92995.56;;;16.37;nan
6345;BME280;3205;42.666;23.264;2022-11-23T11:47:54;92996.41;;;16.31;nan
6345;BME280;3205;42.666;23.264;2022-11-23T11:50:26;93002.41;;;16.38;nan
6345;BME280;3205;42.666;23.264;2022-11-23T11:53:00;92988.00;;;16.32;nan
6345;BME280;3205;42.666;23.264;2022-11-23T11:55:39;92990.53;;;16.42;nan
6345;BME280;3205;42.666;23.264;2022-11-23T11:58:11;92994.13;;;16.59;nan
6345;BME280;3205;42.666;23.264;2022-11-23T12:00:39;92987.81;;;16.72;nan
6345;BME280;3205;42.666;23.264;2022-11-23T12:03:17;92996.59;;;16.73;nan
6345;BME280;3205;42.666;23.264;2022-11-23T12:05:47;92990.25;;;16.63;nan
6345;BME280;3205;42.666;23.264;2022-11-23T12:08:18;92999.66;;;16.71;nan
6345;BME280;3205;42.666;23.264;2022-11-23T12:10:51;92988.72;;;16.62;nan
6345;BME280;3205;42.666;23.264;2022-11-23T12:13:21;92996.41;;;16.57;nan
6345;BME280;3205;42.666;23.264;2022-11-23T12:15:53;92991.91;;;16.54;nan
6345;BME280;3205;42.666;23.264;2022-11-23T12:18:43;92998.06;;;16.47;nan
6345;BME280;3205;42.666;23.264;2022-11-23T12:21:22;92998.25;;;16.34;nan
6345;BME280;3205;42.666;23.264;2022-11-23T12:24:02;92997.84;;;16.05;nan
6345;BME280;3205;42.666;23.264;2022-11-23T12:26:42;93005.25;;;15.87;nan
6345;BME280;3205;42.666;23.264;2022-11-23T12:29:26;92997.19;;;15.94;nan
6345;BME280;3205;42.666;23.264;2022-11-23T12:32:03;92999.44;;;15.99;nan
6345;BME280;3205;42.666;23.264;2022-11-23T12:35:00;92993.41;;;15.92;nan
6345;BME280;3205;42.666;23.264;2022-11-23T12:37:39;92997.09;;;15.71;nan
6345;BME280;3205;42.666;23.264;2022-11-23T12:40:25;92997.59;;;15.60;nan
6345;BME280;3205;42.666;23.264;2022-11-23T12:42:59;92993.47;;;15.55;nan
6345;BME280;3205;42.666;23.264;2022-11-23T12:45:38;92985.69;;;15.31;nan
6345;BME280;3205;42.666;23.264;2022-11-23T12:51:20;92985.75;;;15.27;nan
6345;BME280;3205;42.666;23.264;2022-11-23T12:53:57;92994.47;;;15.28;nan
6345;BME280;3205;42.666;23.264;2022-11-23T12:56:42;92992.56;;;15.28;nan
6345;BME280;3205;42.666;23.264;2022-11-23T12:59:15;92994.91;;;15.19;nan
6345;BME280;3205;42.666;23.264;2022-11-23T13:01:46;92989.09;;;14.87;nan
6345;BME280;3205;42.666;23.264;2022-11-23T13:07:31;92997.63;;;14.62;nan
6345;BME280;3205;42.666;23.264;2022-11-23T13:10:26;92994.22;;;14.58;nan
6345;BME280;3205;42.666;23.264;2022-11-23T13:13:25;92994.81;;;14.25;nan
6345;BME280;3205;42.666;23.264;2022-11-23T13:19:01;92988.13;;;13.89;nan
6345;BME280;3205;42.666;23.264;2022-11-23T13:21:38;92993.84;;;13.81;nan
6345;BME280;3205;42.666;23.264;2022-11-23T13:24:24;92995.41;;;13.68;nan
6345;BME280;3205;42.666;23.264;2022-11-23T13:27:28;92999.97;;;13.64;nan
6345;BME280;3205;42.666;23.264;2022-11-23T13:29:56;92999.63;;;13.48;nan
6345;BME280;3205;42.666;23.264;2022-11-23T13:32:45;93009.88;;;13.42;nan
6345;BME280;3205;42.666;23.264;2022-11-23T13:38:39;93014.44;;;13.45;nan
6345;BME280;3205;42.666;23.264;2022-11-23T13:44:26;93019.75;;;13.42;nan
6345;BME280;3205;42.666;23.264;2022-11-23T13:46:59;93033.03;;;13.42;nan
6345;BME280;3205;42.666;23.264;2022-11-23T13:49:41;93038.31;;;13.45;nan
6345;BME280;3205;42.666;23.264;2022-11-23T13:52:24;93038.66;;;13.61;nan
6345;BME280;3205;42.666;23.264;2022-11-23T13:54:55;93039.03;;;13.60;nan
6345;BME280;3205;42.666;23.264;2022-11-23T13:57:22;93052.69;;;13.69;nan
6345;BME280;3205;42.666;23.264;2022-11-23T13:59:52;93055.72;;;13.64;nan
6345;BME280;3205;42.666;23.264;2022-11-23T14:02:24;93055.72;;;13.67;nan
6345;BME280;3205;42.666;23.264;2022-11-23T14:07:55;93048.53;;;13.64;nan
6345;BME280;3205;42.666;23.264;2022-11-23T14:10:23;93060.69;;;13.58;nan
6345;BME280;3205;42.666;23.264;2022-11-23T14:12:54;93059.91;;;13.54;nan
6345;BME280;3205;42.666;23.264;2022-11-23T14:15:26;93060.31;;;13.46;nan
6345;BME280;3205;42.666;23.264;2022-11-23T14:18:34;93053.50;;;13.34;nan